KOMH

Orange County Airport

Orange, Virginia, USA
METAR KOMH 232315Z AUTO 28003KT 10SM CLR 11/M03 A2979 RMK AO2
Observed Flight Rules
Jan-23 @ 23:15 UTC (28 minutes ago) Visual Flight Rules
Wind Visibility Clouds
280° at 3 knots 10 miles
  • Clear skies
Temperatures Readings
Current 11°C / 52°F
Dewpoint -3°C / 27°F
Humidity 38%
Altimeter 29.79" Hg
Pressure 1009 hPa
Elevation 142
METAR KOMH 232315Z AUTO 28003KT 10SM CLR 11/M03 A2979 RMK AO2
Observed Flight Rules
Jan-23 @ 23:15 UTC
(28 minutes ago)
VFR
Wind Visibility
280° at 3 knots 10 miles
Clouds
  • Clear skies
Temperature Dewpoint
11°C / 52°F -3°C / 27°F
Humidity Altimeter Pressure
38% 29.79" Hg 1009 hPa